• Join FlightAware (Why Join?)
  • Login
  • US Flag 
05:00AM EDT


 

Airport Tracker/Info


-or-


 

Live Flight TrackerFlight Track Log ✈ AWE2690 ✈ 10-Nov-2013 ✈ KMYR - KCLT

Flight Track Log - Related Links

Times and Time Zones

All times are in EST time to prevent confusion due to time zone crossing. See the AWE2690 flight status page for this flight to view local times or setup timezone preferences in your user account.

Time Position Orientation Groundspeed Altitude Reporting Facility
EST Latitude Longitude Course Direction KTS MPH feet Rate Location/Type
11:34AM 33.7567 -78.9708 312° West 210 242 3,600  Level Jacksonville Center
11:35AM 33.7939 -79.0242 310° West 221 254 6,900 2,820 Climbing Jacksonville Center
11:36AM 33.8835 -79.1901 313° West  Level Estimated
11:36AM 33.8375 -79.0897 309° West 226 260 9,300  Level Jacksonville Center
11:37AM 33.9336 -79.2565 312° West  Level FlightAware Approximate
11:37AM 33.8856 -79.1603 309° West 254 292 11,200  Level Jacksonville Center
11:38AM 33.9845 -79.3222 312° West  Level Estimated
11:38AM 33.9444 -79.2453 310° West 296 341 13,800  Level Jacksonville Center
11:39AM 34.0053 -79.3303 311° West 322 371 16,200 2,160 Climbing Jacksonville Center
11:40AM 34.0661 -79.4181 310° West 335 386 18,200 1,860 Climbing Jacksonville Center
11:41AM 34.1267 -79.4986 312° West 350 403 20,000 1,800 Climbing Jacksonville Center
11:42AM 34.1875 -79.5889 309° West 356 410 21,900 960 Climbing Jacksonville Center
11:43AM 34.2547 -79.6869 310° West 362 417 22,000 -720 Climbing Jacksonville Center
11:44AM 34.3219 -79.7850 310° West 372 428 20,500 -1,740 Descending Jacksonville Center
11:45AM 34.3847 -79.8808 308° West 372 428 18,600 -1,740 Descending Jacksonville Center
11:46AM 34.4494 -79.9769 309° West 365 420 17,100 -1,680 Descending Jacksonville Center
11:47AM 34.5122 -80.0706 309° West 360 414 15,300 -1,800 Descending Jacksonville Center
11:48AM 34.5703 -80.1569 309° West 360 414 13,500 -1,920 Descending Jacksonville Center
11:49AM 34.6333 -80.2519 309° West 324 373 11,500 -1,380 Descending Atlanta Center
11:50AM 34.6792 -80.3156 311° West 302 348 11,000 -300 Descending Atlanta Center
11:51AM 34.7289 -80.3767 315° West 259 298 11,000  Level Atlanta Center
11:52AM 34.7831 -80.4425 315° West 269 310 11,000 -600 Level Atlanta Center
11:53AM 34.7939 -80.5281 279° West 264 304 9,800 -1,320 Descending Atlanta Center
11:54AM 34.7861 -80.6269 265° West 257 296 8,300 -840 Descending Atlanta Center
11:55AM 34.7778 -80.7033 262° West 227 261 8,000 -240 Descending Atlanta Center
11:56AM 34.7714 -80.7794 264° West 217 250 7,900 -60 Descending Atlanta Center
11:57AM 34.8003 -80.8439 299° West 217 250 7,900 -360 Level Atlanta Center
11:58AM 34.8514 -80.8850 327° Northwest 217 250 7,200 -840 Descending Atlanta Center
11:59AM 34.8961 -80.9139 332° Northwest 164 189 6,200 -1,020 Descending Atlanta Center
12:00PM 34.9383 -80.9300 343° North 170 196 5,300 -660 Descending Atlanta Center
12:01PM 34.9883 -80.9356 355° North 177 204 4,900 -720 Descending Atlanta Center
12:02PM 35.0408 -80.9414 355° North 173 199 3,800 -1,020 Descending Atlanta Center
12:03PM 35.0847 -80.9447 356° North 171 197 3,000 -840 Descending Atlanta Center
12:04PM 35.1328 -80.9456 359° North 154 177 2,100 -840 Descending Atlanta Center
12:05PM 35.1703 -80.9517 352° North 140 161 1,300 -840 Descending Atlanta Center